RYR842 EGGW-EIKY
Flight info
| Callsign | RYR842 |
|---|---|
| Flight time | 0h 59m |
| Altitude | 24000 |
| Route | RODNI N27 ICTAM T421 DIDZA N14 BIBPE/N0416F300 DCT FELCA DCT OFSOX DCT SLANY DCT KER |
| Aircraft | B738/M-SDFGIJ1LRWY/SB1 |
Departure
| Time | 2026-05-04 09:25 |
|---|---|
| Airport | London Luton Airport (EGGW) |
Arrival
| Time | 2026-05-04 10:25 |
|---|---|
| Airport | Kerry Airport (EIKY) |
| Time | Latitude | Longitude | Altitude | Speed | Heading |
|---|---|---|---|---|---|
| 2026-05-04 09:03 | 51.88087 | -0.37744 | 530 ft | 0 kts | 128° |
| 2026-05-04 09:17 | 51.88119 | -0.37799 | 531 ft | 0 kts | 220° |
| 2026-05-04 09:18 | 51.88123 | -0.37791 | 531 ft | 1 kts | 223° |
| 2026-05-04 09:20 | 51.88105 | -0.37819 | 531 ft | 10 kts | 224° |
| 2026-05-04 09:20 | 51.88039 | -0.37913 | 532 ft | 12 kts | 218° |
| 2026-05-04 09:20 | 51.87969 | -0.37990 | 531 ft | 12 kts | 208° |
| 2026-05-04 09:20 | 51.87882 | -0.38005 | 529 ft | 10 kts | 166° |
| 2026-05-04 09:21 | 51.87820 | -0.37956 | 529 ft | 9 kts | 137° |
| 2026-05-04 09:21 | 51.87791 | -0.37879 | 530 ft | 6 kts | 115° |
| 2026-05-04 09:21 | 51.87774 | -0.37819 | 530 ft | 5 kts | 114° |
| 2026-05-04 09:21 | 51.87753 | -0.37740 | 530 ft | 9 kts | 114° |
| 2026-05-04 09:22 | 51.87720 | -0.37616 | 528 ft | 13 kts | 114° |
| 2026-05-04 09:22 | 51.87658 | -0.37478 | 529 ft | 16 kts | 147° |
| 2026-05-04 09:22 | 51.87548 | -0.37463 | 531 ft | 16 kts | 200° |
| 2026-05-04 09:22 | 51.87490 | -0.37626 | 532 ft | 17 kts | 255° |
| 2026-05-04 09:23 | 51.87458 | -0.37822 | 529 ft | 17 kts | 255° |
| 2026-05-04 09:23 | 51.87425 | -0.37987 | 522 ft | 9 kts | 240° |
| 2026-05-04 09:23 | 51.87384 | -0.38051 | 520 ft | 8 kts | 211° |
| 2026-05-04 09:23 | 51.87319 | -0.38102 | 516 ft | 12 kts | 201° |
| 2026-05-04 09:25 | 51.88385 | -0.31968 | 2121 ft | 156 kts | 69° |
| 2026-05-04 09:25 | 51.88706 | -0.30233 | 2407 ft | 173 kts | 74° |
| 2026-05-04 09:26 | 51.89031 | -0.28193 | 2693 ft | 196 kts | 73° |
| 2026-05-04 09:26 | 51.89354 | -0.25916 | 3105 ft | 217 kts | 85° |
| 2026-05-04 09:26 | 51.89043 | -0.23447 | 3579 ft | 237 kts | 119° |
| 2026-05-04 09:26 | 51.87892 | -0.21422 | 3982 ft | 256 kts | 146° |
| 2026-05-04 09:27 | 51.86199 | -0.20357 | 3987 ft | 267 kts | 173° |
| 2026-05-04 09:27 | 51.84363 | -0.20741 | 4085 ft | 269 kts | 204° |
| 2026-05-04 09:27 | 51.82916 | -0.22632 | 4291 ft | 281 kts | 238° |
| 2026-05-04 09:27 | 51.82304 | -0.25530 | 5323 ft | 273 kts | 265° |
| 2026-05-04 09:28 | 51.82449 | -0.28574 | 6165 ft | 274 kts | 285° |
| 2026-05-04 09:28 | 51.83030 | -0.31607 | 6458 ft | 296 kts | 283° |
| 2026-05-04 09:28 | 51.83125 | -0.34892 | 6990 ft | 293 kts | 263° |
| 2026-05-04 09:28 | 51.82656 | -0.38044 | 7008 ft | 280 kts | 252° |
| 2026-05-04 09:29 | 51.82021 | -0.40979 | 7012 ft | 276 kts | 251° |
| 2026-05-04 09:29 | 51.81419 | -0.43959 | 7009 ft | 278 kts | 255° |
| 2026-05-04 09:29 | 51.81027 | -0.47094 | 7284 ft | 292 kts | 263° |
| 2026-05-04 09:29 | 51.80816 | -0.50226 | 8453 ft | 280 kts | 265° |
| 2026-05-04 09:30 | 51.80619 | -0.53364 | 9258 ft | 280 kts | 264° |
| 2026-05-04 09:30 | 51.80397 | -0.56500 | 9966 ft | 282 kts | 263° |
| 2026-05-04 09:30 | 51.80143 | -0.59664 | 10506 ft | 291 kts | 262° |
| 2026-05-04 09:30 | 51.79859 | -0.62999 | 10852 ft | 306 kts | 262° |
| 2026-05-04 09:31 | 51.79559 | -0.66481 | 11205 ft | 321 kts | 261° |
| 2026-05-04 09:31 | 51.79245 | -0.70126 | 11599 ft | 333 kts | 261° |
| 2026-05-04 09:31 | 51.78922 | -0.73884 | 12197 ft | 339 kts | 261° |
| 2026-05-04 09:31 | 51.78598 | -0.77657 | 12845 ft | 342 kts | 261° |
| 2026-05-04 09:32 | 51.78270 | -0.81471 | 13477 ft | 346 kts | 261° |
| 2026-05-04 09:32 | 51.77938 | -0.85322 | 14126 ft | 349 kts | 261° |
| 2026-05-04 09:34 | 51.75478 | -1.13318 | 18291 ft | 370 kts | 261° |
| 2026-05-04 09:34 | 51.75114 | -1.17400 | 18857 ft | 373 kts | 261° |
| 2026-05-04 09:34 | 51.74736 | -1.21618 | 19407 ft | 376 kts | 261° |
| 2026-05-04 09:34 | 51.74363 | -1.25754 | 19948 ft | 378 kts | 261° |
| 2026-05-04 09:35 | 51.73984 | -1.29948 | 20508 ft | 380 kts | 261° |
| 2026-05-04 09:35 | 51.73597 | -1.34206 | 21005 ft | 383 kts | 261° |
| 2026-05-04 09:35 | 51.73209 | -1.38464 | 21545 ft | 385 kts | 261° |
| 2026-05-04 09:35 | 51.72815 | -1.42771 | 22040 ft | 388 kts | 261° |
| 2026-05-04 09:37 | 51.70747 | -1.72982 | 25096 ft | 409 kts | 271° |
| 2026-05-04 09:37 | 51.70972 | -1.77569 | 25483 ft | 412 kts | 274° |
| 2026-05-04 09:38 | 51.71281 | -1.82132 | 25845 ft | 415 kts | 275° |
| 2026-05-04 09:38 | 51.71634 | -1.86807 | 26216 ft | 418 kts | 275° |
| 2026-05-04 09:38 | 51.71996 | -1.91474 | 26593 ft | 421 kts | 275° |
| 2026-05-04 09:38 | 51.72358 | -1.96177 | 26943 ft | 424 kts | 275° |
| 2026-05-04 09:39 | 51.72712 | -2.00879 | 27276 ft | 427 kts | 275° |
| 2026-05-04 09:39 | 51.72948 | -2.04084 | 27469 ft | 429 kts | 275° |
| 2026-05-04 09:39 | 51.73416 | -2.10563 | 27928 ft | 433 kts | 275° |
| 2026-05-04 09:39 | 51.73758 | -2.15375 | 28396 ft | 432 kts | 276° |
| 2026-05-04 09:40 | 51.74091 | -2.20152 | 28749 ft | 433 kts | 275° |
| 2026-05-04 09:40 | 51.74429 | -2.25025 | 29219 ft | 432 kts | 275° |
| 2026-05-04 09:40 | 51.74756 | -2.29803 | 29672 ft | 430 kts | 275° |
| 2026-05-04 09:40 | 51.75085 | -2.34617 | 30032 ft | 431 kts | 275° |
| 2026-05-04 09:41 | 51.75407 | -2.39392 | 30433 ft | 430 kts | 275° |
| 2026-05-04 09:42 | 51.77634 | -2.73331 | 32016 ft | 436 kts | 275° |
| 2026-05-04 09:43 | 51.78252 | -2.83029 | 32017 ft | 436 kts | 276° |
| 2026-05-04 09:43 | 51.78869 | -2.92812 | 32016 ft | 437 kts | 276° |
| 2026-05-04 09:44 | 51.79473 | -3.02534 | 32018 ft | 437 kts | 276° |
| 2026-05-04 09:46 | 51.81840 | -3.41954 | 32009 ft | 442 kts | 276° |
| 2026-05-04 09:46 | 51.82418 | -3.51870 | 32003 ft | 443 kts | 277° |
| 2026-05-04 09:47 | 51.83360 | -3.61680 | 32007 ft | 444 kts | 283° |
| 2026-05-04 09:49 | 51.88571 | -4.00981 | 32008 ft | 447 kts | 284° |
| 2026-05-04 09:51 | 51.92915 | -4.35668 | 32011 ft | 451 kts | 284° |
| 2026-05-04 09:51 | 51.94143 | -4.45676 | 32013 ft | 451 kts | 285° |
| 2026-05-04 09:52 | 51.95362 | -4.55679 | 32016 ft | 452 kts | 285° |
| 2026-05-04 09:52 | 51.96579 | -4.65755 | 32017 ft | 454 kts | 284° |
| 2026-05-04 09:53 | 51.97786 | -4.75814 | 32012 ft | 455 kts | 284° |
| 2026-05-04 09:53 | 51.98992 | -4.85942 | 32020 ft | 456 kts | 284° |
| 2026-05-04 09:54 | 52.00191 | -4.96074 | 32029 ft | 459 kts | 284° |
| 2026-05-04 09:54 | 52.01383 | -5.06238 | 32027 ft | 458 kts | 285° |
| 2026-05-04 09:55 | 52.02569 | -5.16383 | 32028 ft | 458 kts | 285° |
| 2026-05-04 09:55 | 52.04136 | -5.26392 | 32038 ft | 453 kts | 292° |
| 2026-05-04 09:56 | 52.06105 | -5.36141 | 32033 ft | 452 kts | 294° |
| 2026-05-04 09:56 | 52.08128 | -5.45803 | 32037 ft | 453 kts | 294° |
| 2026-05-04 09:57 | 52.10133 | -5.55525 | 32040 ft | 453 kts | 294° |
| 2026-05-04 09:57 | 52.12107 | -5.65288 | 32050 ft | 453 kts | 292° |
| 2026-05-04 09:58 | 52.14045 | -5.74998 | 32045 ft | 455 kts | 293° |
| 2026-05-04 09:58 | 52.15678 | -5.85086 | 32044 ft | 461 kts | 284° |
| 2026-05-04 10:00 | 52.16756 | -6.27091 | 32052 ft | 466 kts | 275° |
| 2026-05-04 10:04 | 52.17849 | -7.01115 | 32061 ft | 468 kts | 275° |
| 2026-05-04 10:04 | 52.17970 | -7.11653 | 32058 ft | 467 kts | 275° |
| 2026-05-04 10:05 | 52.18079 | -7.22106 | 32056 ft | 448 kts | 275° |
| 2026-05-04 10:05 | 52.18124 | -7.27127 | 31836 ft | 440 kts | 275° |
| 2026-05-04 10:05 | 52.18169 | -7.32092 | 31433 ft | 437 kts | 276° |
| 2026-05-04 10:05 | 52.18216 | -7.37079 | 30947 ft | 436 kts | 276° |
| 2026-05-04 10:06 | 52.18260 | -7.42014 | 30436 ft | 435 kts | 276° |
| 2026-05-04 10:06 | 52.18303 | -7.46945 | 29925 ft | 434 kts | 276° |
| 2026-05-04 10:06 | 52.18343 | -7.51828 | 29414 ft | 433 kts | 276° |
| 2026-05-04 10:08 | 52.18541 | -7.80929 | 26343 ft | 424 kts | 275° |
| 2026-05-04 10:08 | 52.18566 | -7.85762 | 25821 ft | 422 kts | 275° |
| 2026-05-04 10:08 | 52.18589 | -7.90541 | 25306 ft | 420 kts | 275° |
| 2026-05-04 10:08 | 52.18610 | -7.95256 | 24790 ft | 419 kts | 275° |
| 2026-05-04 10:09 | 52.18630 | -7.99971 | 24282 ft | 417 kts | 275° |
| 2026-05-04 10:09 | 52.18646 | -8.04725 | 23723 ft | 411 kts | 275° |
| 2026-05-04 10:09 | 52.18656 | -8.09278 | 23270 ft | 398 kts | 275° |
| 2026-05-04 10:09 | 52.18663 | -8.13702 | 22792 ft | 388 kts | 274° |
| 2026-05-04 10:10 | 52.18670 | -8.18062 | 22323 ft | 377 kts | 275° |
| 2026-05-04 10:10 | 52.18677 | -8.22299 | 21901 ft | 369 kts | 275° |
| 2026-05-04 10:10 | 52.18686 | -8.26517 | 21397 ft | 369 kts | 274° |
| 2026-05-04 10:10 | 52.18696 | -8.30674 | 20941 ft | 368 kts | 274° |
| 2026-05-04 10:11 | 52.18703 | -8.34852 | 20486 ft | 366 kts | 274° |
| 2026-05-04 10:11 | 52.18707 | -8.38984 | 20032 ft | 365 kts | 274° |
| 2026-05-04 10:11 | 52.18709 | -8.43111 | 19577 ft | 364 kts | 274° |
| 2026-05-04 10:11 | 52.18710 | -8.47253 | 19115 ft | 363 kts | 274° |
| 2026-05-04 10:12 | 52.18709 | -8.51374 | 18655 ft | 362 kts | 273° |
| 2026-05-04 10:12 | 52.18706 | -8.55462 | 18195 ft | 361 kts | 273° |
| 2026-05-04 10:12 | 52.18702 | -8.59534 | 17722 ft | 358 kts | 273° |
| 2026-05-04 10:12 | 52.18739 | -8.63523 | 17384 ft | 343 kts | 277° |
| 2026-05-04 10:13 | 52.18975 | -8.67294 | 17061 ft | 329 kts | 281° |
| 2026-05-04 10:13 | 52.19314 | -8.70900 | 16595 ft | 322 kts | 282° |
| 2026-05-04 10:13 | 52.19671 | -8.74507 | 16027 ft | 319 kts | 282° |
| 2026-05-04 10:13 | 52.20001 | -8.78093 | 15453 ft | 317 kts | 281° |
| 2026-05-04 10:14 | 52.20296 | -8.81593 | 14940 ft | 313 kts | 280° |
| 2026-05-04 10:14 | 52.20573 | -8.85099 | 14397 ft | 310 kts | 280° |
| 2026-05-04 10:16 | 52.22226 | -9.08176 | 11559 ft | 265 kts | 280° |
| 2026-05-04 10:16 | 52.22438 | -9.11127 | 11206 ft | 262 kts | 280° |
| 2026-05-04 10:16 | 52.22652 | -9.14098 | 10839 ft | 262 kts | 279° |
| 2026-05-04 10:16 | 52.22863 | -9.17032 | 10355 ft | 263 kts | 279° |
| 2026-05-04 10:17 | 52.23072 | -9.19994 | 9848 ft | 264 kts | 279° |
| 2026-05-04 10:17 | 52.23287 | -9.22982 | 9396 ft | 266 kts | 279° |
| 2026-05-04 10:19 | 52.31205 | -9.30910 | 5916 ft | 243 kts | 51° |
| 2026-05-04 10:19 | 52.32061 | -9.28525 | 5423 ft | 244 kts | 68° |
| 2026-05-04 10:19 | 52.32444 | -9.25834 | 4912 ft | 246 kts | 88° |
| 2026-05-04 10:19 | 52.32036 | -9.23170 | 4384 ft | 252 kts | 121° |
| 2026-05-04 10:20 | 52.30704 | -9.21319 | 3877 ft | 257 kts | 158° |
| 2026-05-04 10:20 | 52.28939 | -9.20950 | 3384 ft | 259 kts | 185° |
| 2026-05-04 10:20 | 52.27216 | -9.21744 | 2981 ft | 255 kts | 210° |
| 2026-05-04 10:20 | 52.25795 | -9.23351 | 2956 ft | 236 kts | 219° |
| 2026-05-04 10:21 | 52.24518 | -9.25028 | 2975 ft | 233 kts | 221° |
| 2026-05-04 10:21 | 52.23438 | -9.26894 | 2967 ft | 220 kts | 241° |
| 2026-05-04 10:21 | 52.22844 | -9.29096 | 2955 ft | 203 kts | 257° |
| 2026-05-04 10:21 | 52.22474 | -9.31308 | 2965 ft | 200 kts | 257° |
| 2026-05-04 10:22 | 52.21590 | -9.35511 | 2443 ft | 190 kts | 254° |
| 2026-05-04 10:22 | 52.21189 | -9.37482 | 2197 ft | 178 kts | 256° |
| 2026-05-04 10:22 | 52.20802 | -9.39372 | 1855 ft | 174 kts | 254° |
| 2026-05-04 10:23 | 52.20419 | -9.41179 | 1624 ft | 165 kts | 254° |
| 2026-05-04 10:23 | 52.20069 | -9.42884 | 1345 ft | 159 kts | 255° |
| 2026-05-04 10:25 | 52.17902 | -9.53267 | 90 ft | 43 kts | 252° |
| 2026-05-04 10:25 | 52.17893 | -9.53576 | 85 ft | 22 kts | 352° |
| 2026-05-04 10:25 | 52.17926 | -9.53587 | 85 ft | 0 kts | 347° |
| 2026-05-04 10:26 | 52.17931 | -9.53589 | 85 ft | 5 kts | 347° |
| 2026-05-04 10:26 | 52.18029 | -9.53647 | 85 ft | 14 kts | 329° |
| 2026-05-04 10:26 | 52.18071 | -9.53724 | 83 ft | 5 kts | 302° |
| 2026-05-04 10:27 | 52.18092 | -9.53760 | 82 ft | 1 kts | 329° |
| 2026-05-04 10:27 | 52.18099 | -9.53759 | 82 ft | 1 kts | 37° |
| 2026-05-04 10:27 | 52.18098 | -9.53752 | 82 ft | 0 kts | 123° |
| 2026-05-04 10:27 | 52.18098 | -9.53751 | 82 ft | 0 kts | 128° |